createdAt,value
2024-03-08T00:00:07.866Z,14.49
2024-03-08T00:01:14.678Z,11.84
2024-03-08T00:02:21.529Z,9.14
2024-03-08T00:03:28.343Z,6.92
2024-03-08T00:04:35.199Z,4.69
2024-03-08T00:05:42.070Z,3.34
2024-03-08T00:06:48.911Z,2.61
2024-03-08T00:07:55.732Z,2.39
2024-03-08T00:09:02.598Z,2.27
2024-03-08T00:10:09.478Z,2.28
2024-03-08T00:11:16.341Z,2.40
2024-03-08T00:12:23.255Z,2.64
2024-03-08T00:13:30.193Z,2.65
2024-03-08T00:14:37.043Z,2.48
2024-03-08T00:15:43.908Z,2.82
2024-03-08T00:16:50.768Z,3.50
2024-03-08T00:17:57.712Z,4.54
2024-03-08T00:19:04.596Z,5.84
2024-03-08T00:20:11.479Z,7.78
2024-03-08T00:21:18.325Z,15.55
2024-03-08T00:22:25.237Z,22.81
2024-03-08T00:23:32.193Z,21.25
2024-03-08T00:24:39.008Z,12.47
2024-03-08T00:25:45.836Z,6.44
2024-03-08T00:26:52.778Z,4.16
2024-03-08T00:27:59.660Z,4.06
2024-03-08T00:29:06.482Z,3.70
2024-03-08T00:30:13.326Z,4.26
2024-03-08T00:31:20.150Z,4.89
2024-03-08T00:32:27.002Z,4.84
2024-03-08T00:33:33.920Z,4.01
2024-03-08T00:34:40.843Z,3.01
2024-03-08T00:35:47.676Z,2.50
2024-03-08T00:36:54.461Z,2.46
2024-03-08T00:38:01.337Z,2.28
2024-03-08T00:39:08.314Z,2.22
2024-03-08T00:40:15.304Z,2.21
2024-03-08T00:41:22.124Z,2.22
2024-03-08T00:42:28.949Z,1.95
2024-03-08T00:43:35.827Z,1.93
2024-03-08T00:44:42.717Z,2.02
2024-03-08T00:45:49.506Z,2.03
2024-03-08T00:46:56.323Z,2.30
2024-03-08T00:48:03.231Z,2.19
2024-03-08T00:49:10.268Z,2.10
2024-03-08T00:50:17.143Z,2.47
2024-03-08T00:51:23.986Z,2.96
2024-03-08T00:52:30.807Z,3.49
2024-03-08T00:53:37.682Z,3.43
2024-03-08T00:54:45.116Z,2.32
2024-03-08T00:55:52.032Z,2.03
2024-03-08T00:56:58.907Z,2.80
2024-03-08T00:58:05.721Z,4.21
2024-03-08T00:59:12.585Z,8.40
2024-03-08T01:00:19.503Z,14.53
2024-03-08T01:01:26.382Z,21.55
2024-03-08T01:02:33.186Z,26.47
2024-03-08T01:03:40.000Z,30.61
2024-03-08T01:04:46.863Z,30.51
2024-03-08T01:05:53.707Z,26.52
2024-03-08T01:07:00.738Z,31.46
2024-03-08T01:08:07.702Z,30.23
2024-03-08T01:09:14.572Z,27.22
2024-03-08T01:10:21.355Z,25.75
2024-03-08T01:11:28.288Z,21.60
2024-03-08T01:12:35.155Z,15.14
2024-03-08T01:13:41.942Z,13.79
2024-03-08T01:14:48.783Z,11.07
2024-03-08T01:15:55.693Z,8.13
2024-03-08T01:17:02.640Z,5.87
2024-03-08T01:18:09.579Z,4.49
2024-03-08T01:19:16.478Z,3.75
2024-03-08T01:20:23.258Z,3.48
2024-03-08T01:21:30.073Z,3.42
2024-03-08T01:22:36.945Z,3.49
2024-03-08T01:23:43.825Z,3.58
2024-03-08T01:24:50.619Z,3.82
2024-03-08T01:25:57.428Z,3.99
2024-03-08T01:27:04.305Z,3.51
2024-03-08T01:28:11.168Z,3.45
2024-03-08T01:29:18.048Z,3.56
2024-03-08T01:30:24.853Z,3.53
2024-03-08T01:31:31.636Z,3.78
2024-03-08T01:32:38.567Z,3.55
2024-03-08T01:33:45.574Z,3.32
2024-03-08T01:34:52.518Z,3.49
2024-03-08T01:35:59.357Z,3.61
2024-03-08T01:37:06.165Z,3.48
2024-03-08T01:38:12.939Z,4.00
2024-03-08T01:39:19.842Z,4.29
2024-03-08T01:40:26.713Z,5.04
2024-03-08T01:41:33.551Z,5.11
2024-03-08T01:42:40.397Z,5.40
2024-03-08T01:43:47.171Z,5.48
2024-03-08T01:44:54.011Z,5.36
2024-03-08T01:46:00.843Z,5.07
2024-03-08T01:47:07.658Z,5.08
2024-03-08T01:48:14.570Z,4.38
2024-03-08T01:49:21.411Z,3.91
2024-03-08T01:50:28.346Z,4.05
2024-03-08T01:51:35.155Z,3.65
2024-03-08T01:52:41.955Z,3.97
2024-03-08T01:53:48.844Z,5.27
2024-03-08T01:54:55.756Z,8.32
2024-03-08T01:56:02.619Z,12.08
2024-03-08T01:57:09.497Z,14.71
2024-03-08T01:58:16.329Z,18.45
2024-03-08T01:59:23.117Z,20.45
2024-03-08T02:00:29.903Z,23.03
2024-03-08T02:01:36.769Z,26.47
2024-03-08T02:02:43.619Z,26.58
2024-03-08T02:03:50.419Z,27.26
2024-03-08T02:04:57.214Z,29.56
2024-03-08T02:06:04.086Z,29.91
2024-03-08T02:07:11.472Z,26.45
2024-03-08T02:08:18.410Z,26.50
2024-03-08T02:09:25.263Z,25.53
2024-03-08T02:10:32.061Z,24.74
2024-03-08T02:11:39.007Z,21.44
2024-03-08T02:12:45.948Z,22.45
2024-03-08T02:13:52.797Z,25.34
2024-03-08T02:14:59.719Z,27.15
2024-03-08T02:16:06.520Z,22.88
2024-03-08T02:17:13.379Z,17.84
2024-03-08T02:18:20.366Z,13.78
2024-03-08T02:19:27.153Z,11.50
2024-03-08T02:20:33.974Z,9.66
2024-03-08T02:21:40.813Z,8.31
2024-03-08T02:22:47.636Z,7.42
2024-03-08T02:23:54.541Z,6.96
2024-03-08T02:25:01.377Z,6.47
2024-03-08T02:26:08.132Z,5.43
2024-03-08T02:27:15.027Z,4.77
2024-03-08T02:28:21.882Z,4.58
2024-03-08T02:29:28.774Z,4.68
2024-03-08T02:30:35.560Z,4.81
2024-03-08T02:31:42.376Z,4.92
2024-03-08T02:32:49.237Z,5.15
2024-03-08T02:33:56.103Z,5.50
2024-03-08T02:35:02.994Z,5.20
2024-03-08T02:36:09.914Z,5.12
2024-03-08T02:37:16.704Z,5.15
2024-03-08T02:38:23.605Z,5.68
2024-03-08T02:39:30.469Z,5.33
2024-03-08T02:40:37.339Z,5.76
2024-03-08T02:41:44.213Z,6.48
2024-03-08T02:42:50.982Z,7.95
2024-03-08T02:43:57.821Z,9.61
2024-03-08T02:45:04.662Z,11.59
2024-03-08T02:46:11.475Z,13.00
2024-03-08T02:47:18.319Z,15.11
2024-03-08T02:48:25.214Z,14.92
2024-03-08T02:49:32.048Z,15.45
2024-03-08T02:50:38.857Z,16.74
2024-03-08T02:51:45.716Z,17.68
2024-03-08T02:52:52.561Z,17.97
2024-03-08T02:53:59.371Z,14.47
2024-03-08T02:55:06.178Z,11.43
2024-03-08T02:56:13.079Z,7.87
2024-03-08T02:57:19.995Z,5.49
2024-03-08T02:58:26.740Z,4.04
2024-03-08T02:59:33.577Z,3.45
2024-03-08T03:00:40.867Z,2.52
2024-03-08T03:01:47.761Z,2.45
2024-03-08T03:02:54.738Z,2.48
2024-03-08T03:04:01.641Z,2.64
2024-03-08T03:05:08.406Z,2.83
2024-03-08T03:06:15.188Z,2.63
2024-03-08T03:07:22.000Z,2.73
2024-03-08T03:08:28.887Z,3.60
2024-03-08T03:09:35.736Z,4.69
2024-03-08T03:10:42.643Z,7.00
2024-03-08T03:11:49.514Z,15.20
2024-03-08T03:12:56.335Z,21.58
2024-03-08T03:14:03.193Z,25.97
2024-03-08T03:15:10.102Z,27.07
2024-03-08T03:16:17.034Z,28.17
2024-03-08T03:17:23.827Z,28.29
2024-03-08T03:18:30.684Z,30.65
2024-03-08T03:19:37.529Z,30.26
2024-03-08T03:20:44.875Z,24.90
2024-03-08T03:21:51.806Z,20.35
2024-03-08T03:22:58.633Z,17.03
2024-03-08T03:24:05.638Z,12.98
2024-03-08T03:25:12.715Z,9.91
2024-03-08T03:26:19.576Z,8.71
2024-03-08T03:27:26.349Z,7.21
2024-03-08T03:28:33.136Z,5.87
2024-03-08T03:29:39.947Z,4.59
2024-03-08T03:30:46.765Z,4.47
2024-03-08T03:31:53.578Z,3.80
2024-03-08T03:33:00.452Z,3.58
2024-03-08T03:34:07.292Z,3.29
2024-03-08T03:35:14.096Z,3.15
2024-03-08T03:36:21.004Z,3.22
2024-03-08T03:37:27.887Z,3.43
2024-03-08T03:38:34.750Z,3.68
2024-03-08T03:39:41.517Z,3.41
2024-03-08T03:40:48.317Z,3.28
2024-03-08T03:41:55.169Z,3.47
2024-03-08T03:43:02.005Z,3.37
2024-03-08T03:44:08.817Z,3.07
2024-03-08T03:45:15.599Z,3.10
2024-03-08T03:46:22.425Z,2.97
2024-03-08T03:47:29.424Z,3.12
2024-03-08T03:48:36.320Z,2.89
2024-03-08T03:49:43.206Z,3.08
2024-03-08T03:50:50.168Z,2.94
2024-03-08T03:51:56.958Z,3.15
2024-03-08T03:53:03.786Z,3.27
2024-03-08T03:54:10.590Z,3.59
2024-03-08T03:55:17.481Z,4.70
2024-03-08T03:56:24.269Z,5.54
2024-03-08T03:57:31.055Z,5.86
2024-03-08T03:58:37.889Z,5.79
2024-03-08T03:59:44.667Z,5.90
2024-03-08T04:00:51.479Z,5.30
2024-03-08T04:01:58.301Z,5.23
2024-03-08T04:03:05.226Z,4.71
2024-03-08T04:04:12.041Z,4.40
2024-03-08T04:05:18.886Z,4.47
2024-03-08T04:06:25.689Z,5.15
2024-03-08T04:07:32.470Z,5.88
2024-03-08T04:08:39.281Z,7.77
2024-03-08T04:09:46.094Z,8.89
2024-03-08T04:10:52.834Z,10.30
2024-03-08T04:11:59.686Z,13.53
2024-03-08T04:13:06.503Z,17.79
2024-03-08T04:14:13.311Z,20.62
2024-03-08T04:15:20.154Z,25.67
2024-03-08T04:16:26.932Z,28.05
2024-03-08T04:17:33.815Z,32.42
2024-03-08T04:18:40.686Z,32.13
2024-03-08T04:19:47.519Z,35.18
2024-03-08T04:20:54.344Z,31.50
2024-03-08T04:22:01.122Z,29.92
2024-03-08T04:23:07.983Z,30.57
2024-03-08T04:24:14.821Z,31.34
2024-03-08T04:25:21.659Z,31.81
2024-03-08T04:26:28.556Z,33.30
2024-03-08T04:27:35.775Z,33.66
2024-03-08T04:28:42.740Z,31.89
2024-03-08T04:29:49.535Z,27.63
2024-03-08T04:30:56.307Z,19.42
2024-03-08T04:32:03.162Z,13.64
2024-03-08T04:33:10.077Z,8.67
2024-03-08T04:34:16.957Z,6.14
2024-03-08T04:35:23.828Z,3.85
2024-03-08T04:36:30.620Z,3.51
2024-03-08T04:37:37.526Z,3.39
2024-03-08T04:38:44.476Z,3.77
2024-03-08T04:39:51.384Z,4.60
2024-03-08T04:40:58.195Z,5.61
2024-03-08T04:42:06.576Z,7.33
2024-03-08T04:43:13.659Z,7.09
2024-03-08T04:44:20.462Z,8.13
2024-03-08T04:45:27.244Z,6.71
2024-03-08T04:46:34.051Z,6.95
2024-03-08T04:47:40.967Z,7.26
2024-03-08T04:48:48.075Z,29.49
2024-03-08T04:49:54.963Z,15.03
2024-03-08T04:51:01.839Z,8.38
2024-03-08T04:52:08.625Z,9.15
2024-03-08T04:53:15.443Z,7.39
2024-03-08T04:54:22.274Z,8.94
2024-03-08T04:55:29.071Z,10.57
2024-03-08T04:56:35.901Z,7.57
2024-03-08T04:57:42.730Z,8.19
2024-03-08T04:58:49.493Z,7.58
2024-03-08T04:59:56.379Z,9.03
2024-03-08T05:01:03.164Z,18.05
2024-03-08T05:02:09.979Z,26.66
2024-03-08T05:03:16.874Z,31.82
2024-03-08T05:04:23.800Z,32.62
2024-03-08T05:05:30.637Z,30.88
2024-03-08T05:06:37.545Z,26.87
2024-03-08T05:07:44.559Z,21.19
2024-03-08T05:08:51.397Z,17.59
2024-03-08T05:09:58.241Z,15.27
2024-03-08T05:11:05.062Z,13.75
2024-03-08T05:12:11.961Z,12.36
2024-03-08T05:13:18.756Z,11.00
2024-03-08T05:14:25.597Z,9.22
2024-03-08T05:15:32.449Z,8.84
2024-03-08T05:16:39.280Z,8.50
2024-03-08T05:17:46.207Z,8.63
2024-03-08T05:18:53.160Z,9.09
2024-03-08T05:20:00.004Z,9.02
2024-03-08T05:21:06.922Z,9.18
2024-03-08T05:22:13.854Z,8.98
2024-03-08T05:23:20.718Z,9.20
2024-03-08T05:24:27.461Z,9.30
2024-03-08T05:25:34.362Z,9.41
2024-03-08T05:26:41.199Z,8.33
2024-03-08T05:27:48.055Z,8.22
2024-03-08T05:28:54.868Z,8.45
2024-03-08T05:30:01.839Z,9.48
2024-03-08T05:31:08.653Z,15.47
2024-03-08T05:32:15.502Z,10.64
2024-03-08T05:33:22.411Z,11.79
2024-03-08T05:34:29.217Z,12.49
2024-03-08T05:35:36.098Z,11.83
2024-03-08T05:36:42.896Z,12.12
2024-03-08T05:37:49.677Z,12.32
2024-03-08T05:38:56.442Z,10.16
2024-03-08T05:40:03.270Z,8.54
2024-03-08T05:41:10.074Z,7.51
2024-03-08T05:42:17.082Z,7.09
2024-03-08T05:43:23.924Z,7.14
2024-03-08T05:44:30.741Z,6.62
2024-03-08T05:45:37.515Z,6.42
2024-03-08T05:46:44.380Z,7.80
2024-03-08T05:47:51.328Z,7.46
2024-03-08T05:48:58.375Z,6.28
2024-03-08T05:50:05.274Z,5.87
2024-03-08T05:51:12.173Z,6.58
2024-03-08T05:52:19.006Z,6.57
2024-03-08T05:53:25.823Z,6.26
2024-03-08T05:54:32.646Z,5.92
2024-03-08T05:55:39.453Z,6.09
2024-03-08T05:56:46.560Z,6.22
2024-03-08T05:57:53.428Z,6.19
2024-03-08T05:59:00.252Z,5.97
2024-03-08T06:00:07.168Z,5.85
2024-03-08T06:01:14.103Z,5.63
2024-03-08T06:02:20.897Z,5.38
2024-03-08T06:03:27.686Z,5.46
2024-03-08T06:04:34.566Z,5.61
2024-03-08T06:05:41.399Z,5.60
2024-03-08T06:06:51.398Z,6.17
2024-03-08T06:07:59.650Z,5.53
2024-03-08T06:09:06.556Z,6.52
2024-03-08T06:10:13.440Z,6.04
2024-03-08T06:11:20.269Z,7.00
2024-03-08T06:12:27.158Z,7.81
2024-03-08T06:13:33.962Z,8.20
2024-03-08T06:14:40.826Z,8.08
2024-03-08T06:15:47.658Z,7.82
2024-03-08T06:16:54.469Z,7.27
2024-03-08T06:18:01.454Z,6.92
2024-03-08T06:19:08.424Z,5.88
2024-03-08T06:20:15.411Z,5.52
2024-03-08T06:21:22.608Z,5.61
2024-03-08T06:22:29.454Z,5.60
2024-03-08T06:23:36.267Z,5.86
2024-03-08T06:24:43.036Z,6.84
2024-03-08T06:25:49.862Z,8.75
2024-03-08T06:26:56.698Z,7.07
2024-03-08T06:28:03.588Z,5.81
2024-03-08T06:29:10.352Z,5.20
2024-03-08T06:30:17.582Z,5.68
2024-03-08T06:31:24.453Z,7.06
2024-03-08T06:32:31.456Z,7.31
2024-03-08T06:33:38.320Z,7.92
2024-03-08T06:34:45.113Z,7.24
2024-03-08T06:35:52.016Z,6.39
2024-03-08T06:36:58.847Z,7.14
2024-03-08T06:38:05.672Z,8.55
2024-03-08T06:39:12.544Z,22.18
2024-03-08T06:40:19.393Z,33.36
2024-03-08T06:41:26.205Z,41.22
2024-03-08T06:42:32.988Z,41.21
2024-03-08T06:43:39.832Z,43.13
2024-03-08T06:44:46.665Z,42.83
2024-03-08T06:45:53.491Z,43.00
2024-03-08T06:47:01.130Z,41.90
2024-03-08T06:48:08.181Z,41.75
2024-03-08T06:49:14.999Z,41.06
2024-03-08T06:50:21.782Z,38.91
2024-03-08T06:51:28.602Z,39.50
2024-03-08T06:52:35.385Z,39.78
2024-03-08T06:53:42.212Z,38.20
2024-03-08T06:54:49.084Z,30.46
2024-03-08T06:55:55.895Z,32.90
2024-03-08T06:57:02.701Z,30.36
2024-03-08T06:58:09.596Z,21.34
2024-03-08T06:59:16.396Z,10.73
2024-03-08T07:00:23.337Z,7.86
2024-03-08T07:01:30.117Z,10.38
2024-03-08T07:02:36.941Z,12.76
2024-03-08T07:03:43.685Z,22.88
2024-03-08T07:04:50.464Z,34.88
2024-03-08T07:05:57.321Z,32.08
2024-03-08T07:07:04.097Z,35.09
2024-03-08T07:08:10.944Z,36.15
2024-03-08T07:09:17.883Z,28.68
2024-03-08T07:10:24.799Z,23.82
2024-03-08T07:11:31.657Z,22.48
2024-03-08T07:12:38.489Z,23.11
2024-03-08T07:13:45.307Z,21.71
2024-03-08T07:14:52.155Z,16.38
2024-03-08T07:15:58.956Z,12.41
2024-03-08T07:17:07.496Z,10.48
2024-03-08T07:18:14.497Z,9.64
2024-03-08T07:19:21.288Z,8.81
2024-03-08T07:20:28.111Z,8.32
2024-03-08T07:21:34.944Z,8.21
2024-03-08T07:22:41.779Z,7.36
2024-03-08T07:23:48.581Z,7.61
2024-03-08T07:24:55.393Z,8.06
2024-03-08T07:26:02.215Z,7.66
2024-03-08T07:27:09.074Z,8.49
2024-03-08T07:28:15.918Z,8.35
2024-03-08T07:29:22.706Z,7.67
2024-03-08T07:30:30.214Z,7.35
2024-03-08T07:31:37.127Z,6.92
2024-03-08T07:32:43.988Z,7.79
2024-03-08T07:33:51.008Z,7.80
2024-03-08T07:34:57.955Z,7.63
2024-03-08T07:36:04.813Z,8.12
2024-03-08T07:37:11.595Z,8.20
2024-03-08T07:38:18.429Z,8.89
2024-03-08T07:39:25.228Z,9.54
2024-03-08T07:40:32.011Z,9.67
2024-03-08T07:41:38.818Z,10.04
2024-03-08T07:42:45.631Z,9.91
2024-03-08T07:43:52.438Z,9.87
2024-03-08T07:44:59.293Z,9.74
2024-03-08T07:46:06.528Z,10.20
2024-03-08T07:47:13.301Z,8.38
2024-03-08T07:48:20.113Z,7.53
2024-03-08T07:49:26.923Z,6.22
2024-03-08T07:50:33.873Z,5.55
2024-03-08T07:51:40.791Z,5.89
2024-03-08T07:52:47.579Z,6.37
2024-03-08T07:53:54.350Z,6.93
2024-03-08T07:55:01.147Z,7.11
2024-03-08T07:56:07.940Z,8.22
2024-03-08T07:57:14.719Z,10.21
2024-03-08T07:58:21.570Z,10.74
2024-03-08T07:59:28.430Z,12.03
2024-03-08T08:00:35.201Z,13.67
2024-03-08T08:01:42.163Z,14.20
2024-03-08T08:02:49.018Z,14.53
2024-03-08T08:03:55.822Z,12.66
2024-03-08T08:05:02.594Z,10.42
2024-03-08T08:06:09.418Z,9.40
2024-03-08T08:07:16.275Z,8.22
2024-03-08T08:08:23.064Z,7.66
2024-03-08T08:09:30.087Z,7.82
2024-03-08T08:10:37.046Z,7.30
2024-03-08T08:11:43.873Z,6.96
2024-03-08T08:12:50.614Z,7.04
2024-03-08T08:13:57.405Z,6.47
2024-03-08T08:15:04.171Z,6.22
2024-03-08T08:16:10.992Z,6.13
2024-03-08T08:17:18.014Z,6.20
2024-03-08T08:18:24.817Z,6.72
2024-03-08T08:19:31.630Z,6.85
2024-03-08T08:20:38.431Z,6.96
2024-03-08T08:21:45.235Z,7.52
2024-03-08T08:22:52.041Z,7.27
2024-03-08T08:23:58.916Z,7.47
2024-03-08T08:25:05.705Z,8.00
2024-03-08T08:26:12.588Z,7.99
2024-03-08T08:27:19.388Z,8.76
2024-03-08T08:28:26.151Z,8.39
2024-03-08T08:29:32.938Z,8.22
2024-03-08T08:30:39.759Z,8.66
2024-03-08T08:31:46.632Z,9.45
2024-03-08T08:32:53.449Z,9.53
2024-03-08T08:34:00.228Z,9.70
2024-03-08T08:35:07.183Z,10.23
2024-03-08T08:36:13.977Z,10.30
2024-03-08T08:37:22.036Z,10.44
2024-03-08T08:38:29.745Z,11.32
2024-03-08T08:39:36.539Z,11.04
2024-03-08T08:40:43.386Z,10.67
2024-03-08T08:41:50.184Z,10.89
2024-03-08T08:42:57.007Z,10.53
2024-03-08T08:44:14.663Z,10.56
2024-03-08T08:45:17.373Z,10.29
2024-03-08T08:46:25.217Z,10.46
2024-03-08T08:47:32.102Z,10.45
2024-03-08T08:48:38.878Z,10.47
2024-03-08T08:49:45.714Z,10.44
2024-03-08T08:50:52.561Z,9.76
2024-03-08T08:52:06.360Z,9.86
2024-03-08T08:53:11.141Z,10.32
2024-03-08T08:54:17.936Z,9.48
2024-03-08T08:55:24.793Z,10.64
2024-03-08T08:56:31.627Z,10.61
2024-03-08T08:57:38.434Z,10.15
2024-03-08T08:58:45.238Z,10.44
2024-03-08T08:59:52.040Z,11.22
2024-03-08T09:00:58.897Z,11.33
2024-03-08T09:02:05.883Z,9.82
2024-03-08T09:03:12.812Z,10.15
2024-03-08T09:04:19.602Z,10.83
2024-03-08T09:05:26.392Z,10.30
2024-03-08T09:06:33.201Z,11.47
2024-03-08T09:07:40.084Z,11.78
2024-03-08T09:08:46.937Z,12.11
2024-03-08T09:09:53.793Z,12.44
2024-03-08T09:11:00.629Z,12.45
2024-03-08T09:12:07.547Z,13.17
2024-03-08T09:13:18.685Z,13.95
2024-03-08T09:14:26.055Z,14.10
2024-03-08T09:15:32.949Z,14.13
2024-03-08T09:16:39.818Z,14.32
2024-03-08T09:17:46.719Z,15.42
2024-03-08T09:18:53.456Z,15.85
2024-03-08T09:20:00.337Z,15.88
2024-03-08T09:21:07.123Z,16.48
2024-03-08T09:22:13.934Z,17.54
2024-03-08T09:23:20.770Z,18.69
2024-03-08T09:24:27.557Z,18.50
2024-03-08T09:25:34.397Z,19.19
2024-03-08T09:26:41.263Z,19.86
2024-03-08T09:27:48.091Z,20.66
2024-03-08T09:28:54.984Z,19.28
2024-03-08T09:30:01.797Z,19.27
2024-03-08T09:31:08.596Z,19.20
2024-03-08T09:32:15.360Z,19.13
2024-03-08T09:33:22.223Z,19.54
2024-03-08T09:34:36.490Z,19.64
2024-03-08T09:35:40.677Z,20.29
2024-03-08T09:36:47.502Z,21.07
2024-03-08T09:37:54.343Z,22.25
2024-03-08T09:39:01.119Z,22.33
2024-03-08T09:40:07.946Z,21.43
2024-03-08T09:41:14.730Z,21.28
2024-03-08T09:42:21.522Z,21.03
2024-03-08T09:43:28.379Z,22.62
2024-03-08T09:44:35.152Z,26.38
2024-03-08T09:45:41.994Z,28.37
2024-03-08T09:46:48.789Z,31.26
2024-03-08T09:47:55.744Z,32.91
2024-03-08T09:49:02.522Z,32.68
2024-03-08T09:50:09.321Z,34.01
2024-03-08T09:51:16.500Z,34.87
2024-03-08T09:52:23.326Z,36.30
2024-03-08T09:53:30.170Z,36.01
2024-03-08T09:54:37.024Z,35.66
2024-03-08T09:55:43.971Z,32.70
2024-03-08T09:56:50.813Z,28.82
2024-03-08T09:57:57.630Z,25.15
2024-03-08T09:59:04.527Z,22.53
2024-03-08T10:00:11.338Z,20.61
2024-03-08T10:01:18.177Z,19.25
2024-03-08T10:02:25.178Z,17.58
2024-03-08T10:03:32.064Z,16.62
2024-03-08T10:04:38.954Z,16.11
2024-03-08T10:05:45.841Z,16.26
2024-03-08T10:06:52.659Z,16.09
2024-03-08T10:07:59.478Z,16.06
2024-03-08T10:09:06.254Z,15.72
2024-03-08T10:10:13.261Z,16.09
2024-03-08T10:11:20.241Z,17.20
2024-03-08T10:12:27.028Z,17.61
2024-03-08T10:13:33.860Z,18.54
2024-03-08T10:14:40.670Z,19.01
2024-03-08T10:15:47.627Z,19.50
2024-03-08T10:16:54.507Z,20.22
2024-03-08T10:18:01.322Z,21.90
2024-03-08T10:19:08.110Z,22.71
2024-03-08T10:20:14.882Z,22.29
2024-03-08T10:21:21.711Z,22.83
2024-03-08T10:22:28.512Z,22.55
2024-03-08T10:23:35.374Z,22.69
2024-03-08T10:24:42.228Z,22.96
2024-03-08T10:25:49.109Z,22.88
2024-03-08T10:26:55.968Z,15.66
2024-03-08T10:28:02.803Z,12.97
2024-03-08T10:29:09.589Z,10.80
2024-03-08T10:30:16.404Z,10.83
2024-03-08T10:31:23.238Z,10.47
2024-03-08T10:32:30.071Z,8.39
2024-03-08T10:33:36.859Z,6.18
2024-03-08T10:34:43.734Z,5.10
2024-03-08T10:35:50.545Z,5.28
2024-03-08T10:36:57.329Z,4.97
2024-03-08T10:38:04.174Z,5.04
2024-03-08T10:39:10.996Z,4.86
2024-03-08T10:40:17.863Z,4.79
2024-03-08T10:41:24.636Z,5.35
2024-03-08T10:42:31.445Z,5.69
2024-03-08T10:43:38.381Z,6.06
2024-03-08T10:44:45.225Z,7.07
2024-03-08T10:45:52.057Z,7.67
2024-03-08T10:46:58.906Z,7.51
2024-03-08T10:48:05.779Z,7.76
2024-03-08T10:49:12.694Z,8.14
2024-03-08T10:50:19.546Z,8.93
2024-03-08T10:51:26.329Z,9.38
2024-03-08T10:52:33.305Z,10.47
2024-03-08T10:53:40.176Z,11.47
2024-03-08T10:54:46.981Z,11.66
2024-03-08T10:55:53.805Z,12.11
2024-03-08T10:57:00.645Z,12.43
2024-03-08T10:58:07.405Z,11.82
2024-03-08T10:59:14.216Z,11.48
2024-03-08T11:00:21.049Z,11.31
2024-03-08T11:01:28.110Z,11.22
2024-03-08T11:02:34.865Z,11.15
2024-03-08T11:03:41.692Z,10.37
2024-03-08T11:04:48.505Z,9.99
2024-03-08T11:05:55.320Z,10.43
2024-03-08T11:07:02.133Z,9.72
2024-03-08T11:08:08.957Z,9.49
2024-03-08T11:09:15.726Z,11.99
2024-03-08T11:10:22.521Z,13.12
2024-03-08T11:11:33.385Z,13.38
2024-03-08T11:12:41.063Z,13.05
2024-03-08T11:13:48.264Z,9.93
2024-03-08T11:14:55.092Z,8.22
2024-03-08T11:16:01.966Z,7.23
2024-03-08T11:17:08.809Z,8.61
2024-03-08T11:18:15.673Z,12.69
2024-03-08T11:19:22.481Z,13.13
2024-03-08T11:20:29.272Z,14.30
2024-03-08T11:21:36.046Z,13.87
2024-03-08T11:22:43.007Z,13.28
2024-03-08T11:23:49.892Z,12.26
2024-03-08T11:24:56.740Z,10.52
2024-03-08T11:26:03.525Z,10.16
2024-03-08T11:27:10.280Z,8.75
2024-03-08T11:28:17.139Z,7.33
2024-03-08T11:29:23.908Z,6.75
2024-03-08T11:30:30.690Z,5.55
2024-03-08T11:31:37.599Z,5.15
2024-03-08T11:32:44.411Z,4.49
2024-03-08T11:33:51.216Z,4.62
2024-03-08T11:34:58.054Z,4.46
2024-03-08T11:36:06.880Z,4.19
2024-03-08T11:37:14.979Z,4.56
2024-03-08T11:38:21.760Z,4.24
2024-03-08T11:39:28.589Z,4.62
2024-03-08T11:40:35.547Z,4.41
2024-03-08T11:41:42.455Z,4.24
2024-03-08T11:42:49.554Z,4.26
2024-03-08T11:43:56.743Z,4.45
2024-03-08T11:45:03.640Z,4.41
2024-03-08T11:46:10.472Z,4.40
2024-03-08T11:47:17.425Z,4.32
2024-03-08T11:48:24.472Z,4.60
2024-03-08T11:49:31.314Z,4.79
2024-03-08T11:50:38.100Z,4.91
2024-03-08T11:51:44.932Z,4.93
2024-03-08T11:52:51.750Z,5.14
2024-03-08T11:53:58.620Z,5.52
2024-03-08T11:55:05.440Z,5.03
2024-03-08T11:56:12.337Z,5.21
2024-03-08T11:57:19.232Z,6.40
2024-03-08T11:58:26.085Z,9.30
2024-03-08T11:59:32.870Z,9.83
2024-03-08T12:00:39.681Z,5.49
2024-03-08T12:01:46.541Z,5.17
2024-03-08T12:02:53.449Z,5.88
2024-03-08T12:04:00.449Z,9.65
2024-03-08T12:05:07.432Z,18.35
2024-03-08T12:06:14.208Z,22.18
2024-03-08T12:07:21.100Z,27.00
2024-03-08T12:08:27.944Z,25.55
2024-03-08T12:09:34.721Z,21.70
2024-03-08T12:10:41.578Z,20.70
2024-03-08T12:11:48.500Z,19.48
2024-03-08T12:12:55.401Z,16.77
2024-03-08T12:14:02.218Z,18.15
2024-03-08T12:15:08.996Z,15.27
2024-03-08T12:16:15.838Z,9.91
2024-03-08T12:17:22.643Z,8.37
2024-03-08T12:18:29.438Z,7.95
2024-03-08T12:19:36.281Z,6.86
2024-03-08T12:20:43.097Z,6.71
2024-03-08T12:21:50.021Z,6.49
2024-03-08T12:22:56.917Z,5.91
2024-03-08T12:24:03.790Z,5.59
2024-03-08T12:25:10.658Z,5.52
2024-03-08T12:26:17.455Z,6.13
2024-03-08T12:27:24.219Z,5.30
2024-03-08T12:28:31.028Z,5.62
2024-03-08T12:29:37.902Z,5.61
2024-03-08T12:30:44.694Z,5.71
2024-03-08T12:31:51.578Z,5.55
2024-03-08T12:32:58.559Z,5.73
2024-03-08T12:34:05.516Z,6.50
2024-03-08T12:35:12.401Z,6.35
2024-03-08T12:36:19.227Z,6.73
2024-03-08T12:37:26.036Z,6.60
2024-03-08T12:38:33.107Z,6.44
2024-03-08T12:39:39.987Z,6.54
2024-03-08T12:40:46.891Z,6.52
2024-03-08T12:41:53.707Z,6.27
2024-03-08T12:43:00.525Z,5.82
2024-03-08T12:44:07.346Z,5.79
2024-03-08T12:45:14.112Z,5.80
2024-03-08T12:46:20.913Z,5.71
2024-03-08T12:47:27.762Z,5.79
2024-03-08T12:48:34.561Z,6.91
2024-03-08T12:49:41.436Z,7.33
2024-03-08T12:50:48.200Z,7.40
2024-03-08T12:51:55.039Z,6.99
2024-03-08T12:53:02.434Z,7.26
2024-03-08T12:54:09.953Z,8.26
2024-03-08T12:55:16.776Z,8.19
2024-03-08T12:56:23.569Z,7.90
2024-03-08T12:57:30.340Z,8.37
2024-03-08T12:58:37.233Z,8.66
2024-03-08T12:59:44.049Z,7.87
2024-03-08T13:00:54.049Z,7.82
2024-03-08T13:02:01.420Z,6.53
2024-03-08T13:03:08.362Z,5.83
2024-03-08T13:04:15.315Z,6.32
2024-03-08T13:05:22.202Z,7.62
2024-03-08T13:06:28.998Z,8.91
2024-03-08T13:07:35.828Z,12.45
2024-03-08T13:08:42.685Z,15.78
2024-03-08T13:09:49.511Z,17.00
2024-03-08T13:10:56.521Z,14.58
2024-03-08T13:12:03.571Z,13.47
2024-03-08T13:13:10.398Z,13.75
2024-03-08T13:14:17.249Z,13.86
2024-03-08T13:15:24.022Z,13.37
2024-03-08T13:16:31.029Z,14.00
2024-03-08T13:17:37.848Z,18.64
2024-03-08T13:18:44.701Z,27.58
2024-03-08T13:19:51.611Z,41.47
2024-03-08T13:20:58.441Z,49.37
2024-03-08T13:22:05.241Z,50.13
2024-03-08T13:23:12.040Z,46.17
2024-03-08T13:24:18.838Z,37.32
2024-03-08T13:25:25.683Z,33.94
2024-03-08T13:26:32.570Z,32.20
2024-03-08T13:27:39.435Z,31.69
2024-03-08T13:28:46.312Z,29.82
2024-03-08T13:29:53.145Z,29.45
2024-03-08T13:31:02.209Z,26.77
2024-03-08T13:32:10.978Z,24.89
2024-03-08T13:33:17.787Z,22.62
2024-03-08T13:34:24.631Z,20.73
2024-03-08T13:35:31.649Z,19.13
2024-03-08T13:36:38.605Z,18.69
2024-03-08T13:37:45.510Z,16.82
2024-03-08T13:38:52.293Z,16.22
2024-03-08T13:39:59.182Z,15.98
2024-03-08T13:41:06.254Z,14.35
2024-03-08T13:42:13.182Z,13.68
2024-03-08T13:43:20.040Z,13.50
2024-03-08T13:44:26.839Z,13.58
2024-03-08T13:45:33.602Z,13.06
2024-03-08T13:46:40.422Z,12.89
2024-03-08T13:47:47.284Z,12.52
2024-03-08T13:48:54.093Z,12.08
2024-03-08T13:50:00.961Z,12.13
2024-03-08T13:51:07.811Z,12.10
2024-03-08T13:52:14.639Z,12.56
2024-03-08T13:53:21.462Z,13.09
2024-03-08T13:54:28.378Z,14.83
2024-03-08T13:55:35.283Z,17.64
2024-03-08T13:56:42.061Z,20.39
2024-03-08T13:57:48.893Z,22.82
2024-03-08T13:58:55.729Z,24.71
2024-03-08T14:00:02.480Z,24.74
2024-03-08T14:01:09.295Z,23.48
2024-03-08T14:02:16.191Z,22.42
2024-03-08T14:03:23.020Z,20.75
2024-03-08T14:04:29.918Z,20.72
2024-03-08T14:05:36.832Z,21.27
2024-03-08T14:06:43.587Z,21.74
2024-03-08T14:07:51.128Z,23.96
2024-03-08T14:08:58.283Z,25.32
2024-03-08T14:10:05.161Z,26.70
2024-03-08T14:11:12.063Z,28.03
2024-03-08T14:12:20.155Z,30.07
2024-03-08T14:13:27.474Z,30.43
2024-03-08T14:14:34.293Z,32.98
2024-03-08T14:15:41.153Z,32.19
2024-03-08T14:16:48.104Z,32.81
2024-03-08T14:17:55.003Z,33.03
2024-03-08T14:19:03.483Z,32.34
2024-03-08T14:20:11.003Z,32.61
2024-03-08T14:21:17.884Z,32.46
2024-03-08T14:22:24.803Z,31.82
2024-03-08T14:23:31.657Z,31.11
2024-03-08T14:24:38.512Z,30.29
2024-03-08T14:25:45.448Z,29.89
2024-03-08T14:26:52.252Z,29.46
2024-03-08T14:27:59.050Z,28.49
2024-03-08T14:29:05.899Z,27.79
2024-03-08T14:30:12.725Z,27.41
2024-03-08T14:31:19.534Z,26.83
2024-03-08T14:32:26.429Z,26.44
2024-03-08T14:33:33.399Z,26.45
2024-03-08T14:34:40.261Z,25.37
2024-03-08T14:35:47.058Z,26.20
2024-03-08T14:36:53.934Z,24.78